METAR Data
IDs: Format: Raw Decoded Include TAF

Data at: 0841 UTC 03 Aug 2021

KVNY 030751Z AUTO 12004KT 10SM CLR 24/12 A2997 RMK AO2 SLP136 T02440122 404000206 $
KVNY 030651Z AUTO 12004KT 10SM CLR 26/12 A2997 RMK AO2 SLP137 T02560122 $
KVNY 030551Z AUTO 00000KT 10SM CLR 28/06 A2997 RMK AO2 SLP135 T02780061 10389 20278 51008 $
KVNY 030451Z 26003KT 10SM CLR 29/06 A2997 RMK AO2 SLP136 T02890056 $
KVNY 030351Z 25006KT 10SM CLR 30/07 A2996 RMK AO2 SLP134 T03000072
KVNY 030251Z 28006KT 10SM CLR 32/06 A2994 RMK AO2 SLP128 T03170056 53003
KVNY 030151Z 27009KT 10SM CLR 34/01 A2993 RMK AO2 SLP125 T03440006
KVNY 030051Z 31007KT 10SM CLR 38/M03 A2993 RMK AO2 SLP123 T03781033
KVNY 022351Z 00000KT 10SM CLR 38/02 A2993 RMK AO2 SLP125 T03830022 10400 20328 56011
KVNY 022251Z 00000KT 10SM CLR 39/01 A2994 RMK AO2 SLP126 T03940006
KVNY 022151Z 11009KT 10SM CLR 40/03 A2995 RMK AO2 SLP129 T04000033
KVNY 022051Z VRB04KT 10SM CLR 38/02 A2997 RMK AO2 SLP136 T03830022 58023
KVNY 021951Z VRB04KT 10SM CLR 38/02 A2999 RMK AO2 SLP144 T03780017
KVNY 021851Z 00000KT 10SM CLR 36/M01 A3002 RMK AO2 SLP152 T03611011
KVNY 021751Z 00000KT 10SM CLR 33/06 A3004 RMK AO2 SLP160 T03280061 10328 20206 58008
KVNY 021651Z 00000KT 10SM CLR 30/07 A3005 RMK AO2 SLP166 T03000072
KVNY 021551Z 00000KT 10SM CLR 27/09 A3006 RMK AO2 SLP168 T02670089
KVNY 021451Z 00000KT 10SM CLR 23/08 A3006 RMK AO2 SLP169 T02330083 51013
KVNY 021351Z 31003KT 10SM CLR 21/09 A3005 RMK AO2 SLP166 T02110089
KVNY 021251Z AUTO 00000KT 10SM CLR 21/12 A3004 RMK AO2 SLP160 T02110117
KVNY 021151Z AUTO 34003KT 10SM CLR 22/12 A3002 RMK AO2 SLP155 T02170117 10261 20217 53001
KVNY 021051Z AUTO 00000KT 10SM CLR 22/13 A3002 RMK AO2 SLP154 T02220128
KVNY 020951Z AUTO 00000KT 10SM CLR 22/12 A3001 RMK AO2 SLP152 T02220122
KVNY 020851Z AUTO 00000KT 10SM CLR 23/13 A3002 RMK AO2 SLP154 T02280128 56001
KVNY 020751Z AUTO 15003KT 10SM CLR 23/12 A3002 RMK AO2 SLP154 T02330122 403780200
KVNY 020651Z AUTO 00000KT 10SM CLR 26/09 A3002 RMK AO2 SLP154 T02560094
KVNY 020551Z AUTO 29003KT 10SM CLR 26/09 A3002 RMK AO2 SLP156 T02610094 10367 20261 51009
KVNY 020451Z 27004KT 10SM CLR 27/08 A3002 RMK AO2 SLP155 T02720083
KVNY 020351Z 25005KT 10SM CLR 29/07 A3000 RMK AO2 SLP150 T02890067
KVNY 020251Z 30004KT 10SM CLR 31/03 A2999 RMK AO2 SLP147 T03060028 53005
KVNY 020151Z 30009KT 10SM CLR 33/02 A2998 RMK AO2 SLP143 T03280017
KVNY 020051Z 29006KT 10SM CLR 35/01 A2998 RMK AO2 SLP141 T03500011
KVNY 012351Z 30009KT 10SM CLR 36/02 A2998 RMK AO2 SLP141 T03610017 10378 20300 56008
KVNY 012251Z 30008KT 10SM CLR 37/02 A2998 RMK AO2 SLP142 T03720017
KVNY 012222Z 32008KT 290V350 10SM CLR 37/03 A2999 RMK AO2 T03720028
KVNY 012151Z 18007KT 10SM CLR 37/11 A2999 RMK AO2 SLP145 T03670111
KVNY 012051Z 15007KT 10SM CLR 36/13 A3000 RMK AO2 SLP149 T03560128 56017